首页
METAR-TAF:

METAR-TAF

机场 :

杜尚别, 塔吉克斯坦

杜尚别机场

纬度: 38-33N, 经度: 068-47E, 海拔: 803米

当前天气观测

该预报发布于22分钟前的22:00 UTC
风速4节,风向多变
温度 13°C
湿度 82%
气压 1023 hPa
能见度10公里或以上
少量云层高于6600英尺, 积雨云.
散云层高于9400英尺

METAR: UTDD 252200Z VRB02MPS 9999 FEW066CB SCT094 13/10 Q1023 R09/D NOSIG RMK QFE698/0931

时间: 03:22 (22:22 UTC)

预报

该预报发布于1小时和22分钟前的21:00 UTC
预报有效从25日的 22点(UTC)到 26日的 10点(UTC)
风速4节,风向多变
能見度: 6000
少量云层高于4000英尺
多云层高于5000英尺, 积雨云.
多云层高于10000英尺
几率 40% :
短暂存在
从 25日的 22点(UTC)到 26日的 10点(UTC)
风速14节,风向多变,有时为23节阵风
雷暴, 雨, 轻雾

TAF: UTDD 252100Z 2522/2610 VRB02MPS 6000 FEW040 BKN050CB BKN100 PROB40 TEMPO 2522/2610 VRB07G12MPS TSRA BR

超过4000个机场的气象观测和天气预报(METAR&TAF报告)。

可查询的气象台以黄色和红色小点在地图上表示。

将鼠标移到小点上方,可查看气象台名称。

然后点击查看天气观测和预报。

如需切换地图:点击带黑十字的绿色按钮放大地图;点击带横线的绿色按钮缩小地图;或者点击绿色箭头查看邻近地区的地图。


METAR-TAF: